Bradford, Rhode Island
Current Conditions -  °F | °C
As of 7:53 AM on Friday 31 Oct 2014 (Local Time) from KWST Reporting Station
Clear Clear  
Wind Chill: 36°   Ceiling: Unl
Heat Index: 39°   Visibility: 10mi
Dew Point: 36°   Wind: 5mph
Humidity: 89%   Direction: 10°N
Pressure: 30.01"   Gusts: NA
Location:  41.39°N, 71.75°W
Report Text: KWST 311153Z AUTO 01004KT 10SM CLR 04/02 A3001 RMK AO2 SLP164 T00390022 10050 20028 51006
Loading
Personal Weather Stations






























Interactive Weather Map
Tropical Storm Tracking
New forecast layout! Learn more

10-Day Weather Forecast

Advertisements
Track Severe Weather on mobile